Time;durP1;ratioP1;P1;durP2;ratioP2;P2;SDS_P1;SDS_P2;PMS_P1;PMS_P2;Temp;Humidity;BMP_temperature;BMP_pressure;BME280_temperature;BME280_humidity;BME280_pressure;Samples;Min_cycle;Max_cycle;Signal;HPM_P1;HPM_P2
2021/10/28 00:12:13;;;;;;;7.67;6.60;;;;;;;9.56;100.00;100894.44;5053278;28;20341;-63
2021/10/28 00:14:44;;;;;;;6.90;6.20;;;;;;;9.43;100.00;100890.78;5053426;28;20191;-63
2021/10/28 00:17:16;;;;;;;8.53;6.90;;;;;;;9.45;100.00;100894.94;5053608;28;20612;-63
2021/10/28 00:19:46;;;;;;;7.00;6.23;;;;;;;9.30;100.00;100886.13;5053583;28;20185;-61
2021/10/28 00:22:14;;;;;;;7.60;6.80;;;;;;;9.27;100.00;100886.50;5053131;28;20288;-61
2021/10/28 00:24:43;;;;;;;8.97;7.10;;;;;;;9.45;100.00;100876.13;5053252;28;20686;-62
2021/10/28 00:27:12;;;;;;;8.00;6.73;;;;;;;9.43;100.00;100891.63;5053268;28;20193;-63
2021/10/28 00:29:40;;;;;;;7.37;6.33;;;;;;;9.25;100.00;100877.81;5053157;28;20215;-62
2021/10/28 00:32:09;;;;;;;7.07;6.33;;;;;;;9.29;100.00;100879.09;5053395;28;20236;-63
2021/10/28 00:34:39;;;;;;;7.90;6.80;;;;;;;9.46;100.00;100869.72;5053296;28;20559;-63
2021/10/28 00:37:07;;;;;;;7.53;6.73;;;;;;;9.20;100.00;100880.25;5057652;28;20208;-62
2021/10/28 00:39:36;;;;;;;7.87;6.33;;;;;;;9.15;100.00;100874.63;5073266;28;20243;-62
2021/10/28 00:42:05;;;;;;;8.20;6.20;;;;;;;9.06;100.00;100872.25;5072640;28;20291;-63
2021/10/28 00:44:34;;;;;;;8.37;7.17;;;;;;;9.01;100.00;100863.94;5073079;28;20287;-62
2021/10/28 00:47:04;;;;;;;9.33;7.33;;;;;;;9.16;100.00;100870.91;5072714;28;20559;-62
2021/10/28 00:49:32;;;;;;;7.40;6.27;;;;;;;9.11;100.00;100862.59;5073022;28;20220;-62
2021/10/28 00:52:02;;;;;;;8.00;6.80;;;;;;;9.06;100.00;100858.81;5072849;28;20283;-62
2021/10/28 00:54:31;;;;;;;8.43;7.00;;;;;;;9.04;100.00;100867.09;5072729;28;20208;-62
2021/10/28 00:57:01;;;;;;;7.80;7.00;;;;;;;8.97;100.00;100863.50;5072564;28;20216;-62
2021/10/28 00:59:29;;;;;;;7.87;7.07;;;;;;;8.96;100.00;100864.53;5072953;28;20197;-62
2021/10/28 01:01:58;;;;;;;8.90;7.37;;;;;;;8.93;100.00;100854.13;5072979;28;20196;-63
2021/10/28 01:04:27;;;;;;;9.00;7.10;;;;;;;8.90;100.00;100853.69;5072876;28;20228;-62
2021/10/28 01:06:56;;;;;;;8.50;6.80;;;;;;;8.83;100.00;100859.00;5072687;28;20291;-62
2021/10/28 01:09:25;;;;;;;9.37;7.07;;;;;;;9.03;100.00;100860.03;5072583;28;20205;-61
2021/10/28 01:11:54;;;;;;;7.93;7.13;;;;;;;9.12;100.00;100856.19;5072200;28;20236;-63
2021/10/28 01:14:23;;;;;;;7.70;7.00;;;;;;;8.90;100.00;100857.22;5072737;28;20287;-62
2021/10/28 01:16:56;;;;;;;10.77;7.60;;;;;;;8.88;100.00;100866.50;5072582;28;20227;-63
2021/10/28 01:19:25;;;;;;;7.90;7.10;;;;;;;8.90;100.00;100867.13;5072696;28;20216;-62
2021/10/28 01:21:54;;;;;;;7.60;6.80;;;;;;;8.88;100.00;100870.00;5072276;28;20747;-62
2021/10/28 01:24:23;;;;;;;9.70;7.70;;;;;;;8.86;100.00;100866.69;5072386;28;20291;-63
2021/10/28 01:26:51;;;;;;;8.63;7.47;;;;;;;9.13;100.00;100865.91;5072415;28;20295;-62
2021/10/28 01:29:19;;;;;;;8.87;7.37;;;8.40;99.90;;;9.05;100.00;100874.09;5072597;28;20599;-62
2021/10/28 01:31:47;;;;;;;9.07;7.67;;;;;;;9.05;100.00;100879.47;5072386;28;20683;-62
2021/10/28 01:34:20;;;;;;;8.40;6.93;;;;;;;9.00;100.00;100871.16;5072736;28;20185;-63
2021/10/28 01:36:48;;;;;;;9.40;7.33;;;;;;;8.99;100.00;100874.88;5072022;28;20684;-61
2021/10/28 01:39:21;;;;;;;8.63;7.67;;;;;;;8.91;100.00;100872.34;5072678;28;20307;-62
2021/10/28 01:41:49;;;;;;;9.47;8.37;;;;;;;8.83;100.00;100875.13;5072279;28;20607;-61
2021/10/28 01:44:19;;;;;;;9.23;8.23;;;;;;;8.81;100.00;100870.97;5072547;28;20196;-63
2021/10/28 01:46:47;;;;;;;10.77;8.30;;;;;;;8.86;100.00;100871.22;5072263;28;20215;-62
2021/10/28 01:49:22;;;;;;;12.37;8.40;;;;;;;8.81;100.00;100868.28;5072709;28;20203;-62
2021/10/28 01:51:53;;;;;;;9.23;8.23;;;;;;;8.78;100.00;100866.00;5072796;28;20752;-61
2021/10/28 01:54:24;;;;;;;11.60;8.87;;;;;;;8.83;100.00;100877.00;5075429;28;20181;-62
2021/10/28 01:56:54;;;;;;;9.70;8.67;;;;;;;8.85;100.00;100861.50;5076196;28;20188;-61
2021/10/28 01:59:22;;;;;;;11.77;8.40;;;;;;;8.71;100.00;100857.03;5076094;28;20221;-62
2021/10/28 02:01:50;;;;;;;12.67;8.47;;;;;;;8.81;100.00;100860.22;5076249;28;20207;-62
2021/10/28 02:04:19;;;;;;;11.30;8.97;;;;;;;8.68;100.00;100860.91;5076092;28;20216;-62
2021/10/28 02:06:48;;;;;;;10.23;8.97;;;;;;;8.77;100.00;100857.09;5073949;28;20247;-62
2021/10/28 02:09:17;;;;;;;11.87;9.23;;;;;;;8.79;100.00;100851.53;5055781;28;20610;-62
2021/10/28 02:11:47;;;;;;;10.93;9.43;;;;;;;8.96;100.00;100850.25;5055466;28;20240;-62
2021/10/28 02:14:15;;;;;;;11.37;8.93;;;;;;;8.94;100.00;100861.19;5055901;28;20233;-64
2021/10/28 02:16:44;;;;;;;10.57;8.93;;;;;;;8.73;100.00;100858.47;5055678;28;20751;-63
2021/10/28 02:19:12;;;;;;;11.33;9.50;;;;;;;8.73;100.00;100861.16;5055421;28;20228;-63
2021/10/28 02:21:41;;;;;;;12.10;9.73;;;;;;;8.59;100.00;100851.31;5055468;28;20664;-63
2021/10/28 02:24:09;;;;;;;12.93;10.60;;;;;;;8.67;100.00;100861.94;5055853;28;20201;-63
2021/10/28 02:26:38;;;;;;;13.77;10.53;;;;;;;8.92;100.00;100857.88;5055266;28;20292;-62
2021/10/28 02:29:07;;;;;;;14.30;10.70;;;;;;;8.77;100.00;100851.72;5055746;28;20197;-62
2021/10/28 02:31:36;;;;;;;13.23;11.03;;;;;;;8.84;100.00;100849.09;5055597;28;20597;-62
2021/10/28 02:34:05;;;;;;;14.23;11.50;;;;;;;8.98;100.00;100850.91;5055702;28;20201;-63
2021/10/28 02:36:33;;;;;;;13.30;11.17;;;;;;;9.08;100.00;100844.16;5055115;28;20201;-62
2021/10/28 02:39:01;;;;;;;16.30;10.90;;;;;;;8.90;100.00;100849.16;5055157;28;20593;-62
2021/10/28 02:41:30;;;;;;;12.77;10.53;;;;;;;8.70;100.00;100842.75;5055028;28;20860;-62
2021/10/28 02:43:58;;;;;;;13.93;10.70;;;;;;;8.71;100.00;100847.09;5055422;28;20295;-63
2021/10/28 02:46:29;;;;;;;14.90;11.40;;;;;;;8.73;100.00;100844.25;5055399;28;20299;-62
2021/10/28 02:48:57;;;;;;;14.20;11.40;;;;;;;8.54;100.00;100854.56;5055452;28;20575;-62
2021/10/28 02:51:25;;;;;;;14.77;10.77;;;;;;;8.33;100.00;100859.06;5055205;28;20289;-62
2021/10/28 02:53:54;;;;;;;14.60;11.77;;;;;;;8.38;100.00;100853.97;5054821;28;20197;-62
2021/10/28 02:56:22;;;;;;;13.40;10.83;;;;;;;8.37;100.00;100855.00;5055031;28;20280;-62
2021/10/28 02:58:51;;;;;;;15.40;12.00;;;;;;;8.35;100.00;100848.97;5060453;28;20223;-62
2021/10/28 03:01:19;;;;;;;14.90;12.23;;;;;;;8.41;100.00;100853.56;5075112;28;20236;-63
2021/10/28 03:03:49;;;;;;;14.43;11.77;;;;;;;8.27;100.00;100849.91;5074778;28;20295;-63
2021/10/28 03:06:18;;;;;;;14.70;11.10;;;;;;;8.18;100.00;100853.69;5074686;28;20693;-62
2021/10/28 03:08:48;;;;;;;17.40;12.03;;;;;;;8.31;100.00;100839.63;5074593;28;20306;-63
2021/10/28 03:11:17;;;;;;;16.07;12.17;;;;;;;8.29;100.00;100844.34;5074366;28;20243;-61
2021/10/28 03:13:48;;;;;;;14.10;11.83;;;;;;;8.25;100.00;100848.44;5074889;28;20247;-62
2021/10/28 03:16:21;;;;;;;14.67;12.13;;;;;;;8.47;100.00;100853.66;5074918;28;20364;-63
2021/10/28 03:27:09;;;;;;;14.93;11.90;;;;;;;8.43;100.00;100847.00;5074521;28;20181;-63
2021/10/28 03:29:37;;;;;;;16.03;12.03;;;;;;;8.42;100.00;100842.66;5074507;28;20193;-63
2021/10/28 03:32:06;;;;;;;15.60;11.43;;;;;;;8.18;100.00;100847.47;5074522;28;20663;-61
2021/10/28 03:34:36;;;;;;;16.47;12.03;;;;;;;8.10;100.00;100837.66;5074420;28;20274;-62
2021/10/28 03:37:06;;;;;;;15.27;12.00;;;;;;;8.12;100.00;100848.22;5074226;28;20292;-62
2021/10/28 03:39:47;;;;;;;16.97;12.40;;;;;;;8.34;100.00;100847.28;5074239;28;20312;-62
2021/10/28 03:51:38;;;;;;;14.30;12.10;;;;;;;7.93;100.00;100841.56;5067203;28;20197;-62
2021/10/28 04:05:48;;;;;;;17.67;12.50;;;;;;;8.05;100.00;100833.91;5073563;28;20201;-63
2021/10/28 04:08:46;;;;;;;14.90;12.40;;;;;;;8.11;100.00;100841.19;5059330;28;20293;-62
2021/10/28 04:30:53;;;;;;;18.00;13.30;;;;;;;8.21;100.00;100831.84;5053338;28;20193;-62
2021/10/28 04:33:22;;;;;;;16.67;12.70;;;;;;;7.94;100.00;100829.00;5053392;28;20202;-61
2021/10/28 04:35:50;;;;;;;17.83;13.57;;;;;;;7.98;100.00;100828.44;5053389;28;20400;-63
2021/10/28 04:38:19;;;;;;;17.83;12.97;;;;;;;7.88;100.00;100822.53;5053178;28;20292;-62
2021/10/28 04:40:48;;;;;;;19.43;13.50;;;;;;;7.97;100.00;100824.09;5052986;28;20225;-62
2021/10/28 04:43:17;;;;;;;19.07;13.43;;;;;;;7.82;100.00;100822.44;5053172;28;20614;-62
2021/10/28 04:45:45;;;;;;;19.03;13.10;;;;;;;7.85;100.00;100835.47;5053072;28;20296;-62
2021/10/28 04:48:13;;;;;;;19.57;14.63;;;;;;;7.98;100.00;100830.31;5052955;28;20205;-62
2021/10/28 04:50:42;;;;;;;18.63;13.30;;;;;;;8.05;100.00;100821.31;5053044;28;20224;-62
2021/10/28 04:53:12;;;;;;;20.83;14.63;;;;;;;8.01;100.00;100824.56;5052873;28;20304;-62
2021/10/28 04:55:40;;;;;;;20.57;14.23;;;;;;;7.80;100.00;100825.31;5053134;28;20197;-62
2021/10/28 04:58:10;;;;;;;16.73;12.63;;;;;;;7.89;100.00;100820.69;5052610;28;20285;-62
2021/10/28 05:00:38;;;;;;;20.50;14.17;;;;;;;8.12;100.00;100822.22;5052295;28;20763;-62
2021/10/28 05:03:07;;;;;;;21.23;14.63;;;;;;;7.88;100.00;100814.47;5052779;28;20271;-62
2021/10/28 05:05:35;;;;;;;19.80;14.13;;;;;;;7.87;100.00;100815.50;5052668;28;20284;-62
2021/10/28 05:08:03;;;;;;;17.87;13.40;;;;;;;7.77;100.00;100814.13;5064709;28;20221;-63
2021/10/28 05:10:33;;;;;;;18.30;13.80;;;;;;;7.71;100.00;100815.72;5072249;28;20319;-62
2021/10/28 05:13:02;;;;;;;20.07;13.97;;;;;;;7.83;100.00;100813.38;5072679;28;20300;-62
2021/10/28 05:15:32;;;;;;;17.77;13.83;;;;;;;7.64;100.00;100821.97;5072524;28;20665;-61
2021/10/28 05:18:00;;;;;;;18.77;13.53;;;;;;;7.52;100.00;100812.72;5072832;28;20204;-62
2021/10/28 05:20:28;;;;;;;19.20;13.97;;;;;;;7.42;100.00;100816.50;5072768;28;20256;-62
2021/10/28 05:22:57;;;;;;;19.27;14.73;;;;;;;7.34;100.00;100821.09;5072526;28;20616;-62
2021/10/28 05:25:25;;;;;;;22.27;14.53;;;;;;;7.49;100.00;100815.78;5072768;28;20246;-62
2021/10/28 05:27:54;;;;;;;21.13;14.80;;;;;;;7.37;100.00;100807.34;5074888;28;20606;-63
2021/10/28 05:30:22;;;;;;;20.30;15.23;;;;;;;7.36;100.00;100814.56;5076840;28;20199;-62
2021/10/28 05:32:52;;;;;;;20.60;14.57;;;;;;;7.28;100.00;100811.13;5076648;28;20579;-62
2021/10/28 05:35:20;;;;;;;17.83;13.50;;;;;;;7.21;100.00;100816.38;5076762;28;20203;-63
2021/10/28 05:37:49;;;;;;;18.70;14.30;;;;;;;7.17;100.00;100820.44;5076294;28;20550;-63
2021/10/28 05:40:18;;;;;;;22.57;15.13;;;;;;;7.33;100.00;100816.78;5076435;28;20312;-63
2021/10/28 05:42:49;;;;;;;21.17;15.63;;;;;;;7.31;100.00;100818.78;5075960;28;20233;-62
2021/10/28 05:45:20;;;;;;;20.27;15.20;;;;;;;7.31;100.00;100818.78;5076428;28;20191;-62
2021/10/28 05:47:49;;;;;;;21.10;15.13;;;;;;;7.17;100.00;100808.91;5076540;28;20299;-62
2021/10/28 05:50:24;;;;;;;21.30;15.23;;;;;;;7.35;100.00;100812.06;5076175;28;20724;-63
2021/10/28 05:52:55;;;;;;;22.93;14.50;;;;;;;7.29;100.00;100810.09;5076168;28;20185;-63
2021/10/28 05:55:24;;;;;;;22.33;14.40;;;;;;;7.25;100.00;100809.66;5076420;28;20188;-62
2021/10/28 05:57:53;;;;;;;23.50;15.37;;;;;;;7.23;100.00;100803.66;5075867;28;20209;-62
2021/10/28 06:00:24;;;;;;;21.90;15.53;;;;;;;7.21;100.00;100802.97;5076485;28;20254;-62
2021/10/28 06:02:52;;;;;;;20.73;14.73;;;;;;;7.22;100.00;100806.50;5076180;28;20297;-62
2021/10/28 06:05:22;;;;;;;22.03;15.57;;;;;;;7.21;100.00;100799.47;5076148;28;20219;-62
2021/10/28 06:07:51;;;;;;;22.07;16.03;;;;;;;7.27;100.00;100804.13;5065006;28;20625;-63
2021/10/28 06:10:19;;;;;;;22.60;14.93;;;;;;;7.27;100.00;100810.28;5055722;28;20225;-62
2021/10/28 06:12:51;;;;;;;24.77;16.57;;;;;;;7.35;100.00;100804.88;5055778;28;20197;-63
2021/10/28 06:15:21;;;;;;;20.70;15.60;;;;;;;7.36;100.00;100809.19;5055999;28;20280;-62
2021/10/28 06:17:53;;;;;;;25.17;16.37;;;;;;;7.49;100.00;100800.53;5055843;28;20201;-63
2021/10/28 06:20:23;;;;;;;22.57;16.33;;;;;;;7.55;100.00;100804.31;5055822;28;20293;-62
2021/10/28 06:22:52;;;;;;;24.20;16.33;;;;;;;7.50;100.00;100809.38;5055804;28;20186;-62
2021/10/28 06:25:22;;;;;;;27.37;17.07;;;;;;;7.43;100.00;100820.84;5055829;28;20296;-62
2021/10/28 06:27:50;;;;;;;22.87;15.87;;;;;;;7.42;100.00;100821.03;5055571;28;20212;-63
2021/10/28 06:30:19;;;;;;;23.37;16.40;;;;;;;7.42;100.00;100821.84;5055540;28;20600;-62
2021/10/28 06:32:52;;;;;;;21.47;16.17;;;;;;;7.51;100.00;100817.25;5055643;28;20208;-63
2021/10/28 06:35:21;;;;;;;25.80;16.43;;;;;;;7.62;100.00;100811.44;5055230;28;20282;-62
2021/10/28 06:37:51;;;;;;;22.03;16.17;;;;;;;7.64;100.00;100816.63;5054902;28;20205;-64
2021/10/28 06:40:21;;;;;;;22.57;15.63;;;;;;;7.80;100.00;100811.06;5054674;28;20313;-62
2021/10/28 06:42:50;;;;;;;21.87;16.50;;;;;;;7.79;100.00;100815.59;5055024;28;20715;-62
2021/10/28 06:45:20;;;;;;;24.37;16.33;;;;;;;7.78;100.00;100818.47;5055297;28;20292;-62
2021/10/28 06:47:49;;;;;;;22.67;16.40;;;;;;;7.85;100.00;100816.69;5055112;28;20190;-62
2021/10/28 06:50:19;;;;;;;20.83;15.07;;;;;;;7.91;100.00;100811.44;5055511;28;20221;-62
2021/10/28 06:52:53;;;;;;;23.80;16.63;;;;;;;8.01;100.00;100811.13;5054966;28;20720;-62
2021/10/28 06:55:35;;;;;;;22.60;16.63;;;;;;;8.14;100.00;100817.50;5055366;28;20284;-62
2021/10/28 07:03:38;;;;;;;20.90;14.67;;;;;;;8.42;100.00;100817.66;5074988;28;20185;-64
2021/10/28 07:06:10;;;;;;;20.83;15.50;;;;;;;8.54;100.00;100808.09;5074700;28;20197;-63
2021/10/28 07:08:42;;;;;;;21.60;15.23;;;;;;;8.66;100.00;100803.88;5057581;28;20292;-62
2021/10/28 07:11:15;;;;;;;21.50;15.20;;;;;;;8.80;100.00;100811.03;5054606;28;20780;-62
2021/10/28 07:13:46;;;;;;;21.80;15.53;;;;;;;8.92;100.00;100804.13;5054610;28;20186;-63
2021/10/28 07:16:21;;;;;;;19.03;14.80;;;;;;;9.02;100.00;100803.78;5054807;28;20196;-64
2021/10/28 07:18:55;;;;;;;18.63;13.77;;;;;;;9.21;100.00;100813.88;5055400;28;20280;-62
2021/10/28 07:21:45;;;;;;;15.30;12.87;;;;;;;9.49;100.00;100809.31;5054921;28;20205;-63
2021/10/28 07:27:13;;;;;;;16.90;12.77;;;;;;;9.49;100.00;100817.41;5054662;28;20559;-63
2021/10/28 07:32:44;;;;;;;17.87;12.77;;;;;;;9.81;100.00;100811.38;5054655;28;20178;-62
2021/10/28 07:35:28;;;;;;;15.97;12.37;;;;;;;9.95;100.00;100806.91;5054321;28;20186;-63
2021/10/28 07:58:03;;;;;;;15.03;12.50;;;;;;;10.89;100.00;100786.09;5011565;28;20213;-63
2021/10/28 08:14:59;;;;;;;14.57;11.20;;;;;;;11.28;100.00;100770.97;5053762;28;20251;-62
2021/10/28 08:20:52;;;;;;;13.97;11.00;;;;;;;11.50;100.00;100767.00;5031045;28;20212;-63
2021/10/28 08:23:32;;;;;;;15.83;11.73;;;;;;;11.60;100.00;100762.78;5052040;28;20229;-63
2021/10/28 08:28:51;;;;;;;15.63;11.03;;;;;;;11.79;100.00;100748.44;5053476;28;20632;-63
2021/10/28 08:31:21;;;;;;;14.73;11.87;;;;;;;11.84;100.00;100751.34;5053610;28;20216;-63
2021/10/28 08:33:51;;;;;;;14.30;11.03;;;;;;;11.87;100.00;100753.59;5053512;28;20185;-63
2021/10/28 08:36:24;;;;;;;15.53;11.40;;;;;;;12.02;100.00;100751.47;5053166;28;20284;-65
2021/10/28 08:38:53;;;;;;;13.10;11.37;;;;;;;12.13;100.00;100741.88;5072137;28;20794;-61
2021/10/28 08:41:23;;;;;;;14.47;11.20;;;;;;;12.21;100.00;100731.66;5073010;28;20752;-62
2021/10/28 08:43:55;;;;;;;13.63;11.07;;;;;;;12.32;100.00;100732.00;5073439;28;20192;-64
2021/10/28 08:46:25;;;;;;;14.57;11.20;;;;;;;12.38;100.00;100723.03;5072916;28;20187;-62
2021/10/28 08:48:58;;;;;;;15.03;11.90;;;;;;;12.52;100.00;100727.28;5073389;28;20181;-61
2021/10/28 08:51:34;;;;;;;13.97;11.03;;;;;;;12.58;100.00;100729.16;5073159;28;20695;-62
2021/10/28 08:54:21;;;;;;;13.97;11.37;;;;;;;12.63;100.00;100710.41;5073114;28;20185;-63
2021/10/28 08:56:59;;;;;;;14.57;11.70;;;;;;;12.73;100.00;100713.44;5072958;28;20189;-62
2021/10/28 08:59:45;;;;;;;13.80;11.73;;;;;;;12.64;100.00;100712.03;5073186;28;20200;-62
2021/10/28 09:24:58;;;;;;;14.67;10.77;;;;;;;13.71;100.00;100680.84;5052675;28;20201;-62
2021/10/28 09:27:42;;;;;;;11.83;10.07;;;;;;;13.84;100.00;100677.13;5052666;28;20208;-64
2021/10/28 09:30:20;;;;;;;10.20;9.00;;;;;;;13.95;100.00;100682.59;5052798;28;20182;-62
2021/10/28 09:32:51;;;;;;;11.18;9.23;;;;;;;14.03;100.00;100676.88;5052825;28;20300;-64
2021/10/28 09:35:47;;;;;;;11.30;9.57;;;;;;;14.13;100.00;100671.72;5052729;28;20197;-62
2021/10/28 09:44:45;;;;;;;11.98;9.50;;;;;;;14.44;98.81;100667.97;5052687;28;20255;-63
2021/10/28 09:47:32;;;;;;;13.63;9.63;;;;;;;14.37;98.91;100673.50;5052662;28;20269;-64
2021/10/28 09:50:10;;;;;;;10.55;9.25;;;;;;;14.62;98.54;100666.00;5052560;28;20188;-63
2021/10/28 09:52:48;;;;;;;11.60;9.40;;;;;;;14.54;98.65;100670.94;5052577;28;20204;-63
2021/10/28 09:58:23;;;;;;;10.18;8.07;;;;;;;14.71;96.95;100671.91;5052053;28;20192;-63
2021/10/28 10:00:52;;;;;;;10.57;8.73;;;;;;;14.66;95.63;100659.03;5052098;28;20707;-63
2021/10/28 10:03:25;;;;;;;13.32;8.82;;;;;;;14.69;94.66;100665.91;5052615;28;20189;-63
2021/10/28 10:06:00;;;;;;;11.55;8.20;;;;;;;14.79;94.31;100671.56;5052332;28;20192;-62
2021/10/28 10:08:29;;;;;;;10.88;8.40;;;;;;;14.97;93.08;100665.22;5067468;28;20703;-62
2021/10/28 10:10:59;;;;;;;10.18;8.13;;;;;;;14.97;93.60;100665.22;5071866;28;20741;-62
2021/10/28 10:13:29;;;;;;;9.98;8.32;;;;;;;14.95;93.80;100673.56;5072136;28;20235;-62
2021/10/28 10:16:00;;;;;;;11.48;8.93;;;;;;;14.99;92.33;100680.19;5075674;28;20564;-62
2021/10/28 10:18:30;;;;;;;10.35;8.75;;;;;;;14.92;93.75;100668.63;5076039;28;20537;-63
2021/10/28 10:21:03;;;;;;;10.52;8.82;;;;;;;14.97;93.43;100671.44;5075830;28;20567;-62
2021/10/28 10:23:58;;;;;;;9.20;8.00;;;;;;;15.02;93.96;100671.56;5075436;28;20258;-62
2021/10/28 11:20:39;;;;;;;5.70;4.40;;;;;;;16.25;81.47;100607.59;5054854;28;20239;-63
2021/10/28 11:23:20;;;;;;;5.82;5.22;;;;;;;16.38;80.66;100596.41;5054302;28;20307;-64
2021/10/28 12:22:47;;;;;;;7.43;6.65;;;;;;;16.72;83.72;100505.56;5072902;28;20224;-65
2021/10/28 12:25:28;;;;;;;7.82;7.03;;;;;;;16.67;85.13;100505.50;5073527;28;20200;-63
2021/10/28 12:28:29;;;;;;;7.45;6.68;;;;;;;17.38;83.01;100506.38;5073056;28;20672;-63
2021/10/28 12:45:46;;;;;;;7.25;6.00;;;;;;;18.93;60.86;100480.41;5072904;28;20188;-63
2021/10/28 12:51:27;;;;;;;6.28;5.68;;;;;;;18.02;64.05;100480.88;5067571;28;20201;-64
2021/10/28 12:54:45;;;;;;;5.90;5.40;;;;;;;17.69;65.85;100473.78;5073001;28;20177;-63
2021/10/28 13:56:24;;;;;;;6.05;4.85;;;;;;;16.34;68.76;100406.78;5056378;28;20224;-64
2021/10/28 14:21:34;;;;;;;4.95;4.30;;;;;;;15.66;68.78;100394.34;5056095;28;20277;-63
2021/10/28 14:32:50;;;;;;;4.63;3.25;;;;;;;15.36;68.20;100376.69;5055744;28;20636;-63
2021/10/28 15:28:33;;;;;;;14.07;9.98;;;;;;;14.40;95.71;100309.78;5054345;28;20292;-63
2021/10/28 15:31:30;;;;;;;11.50;9.63;;;;;;;14.29;97.21;100310.63;5054545;28;20186;-63
2021/10/28 15:34:25;;;;;;;12.27;10.85;;;;;;;14.17;100.00;100301.69;5054248;28;20228;-62
2021/10/28 15:36:59;;;;;;;13.88;10.45;;;;;;;14.02;100.00;100308.69;5056859;28;20205;-63
2021/10/28 15:39:33;;;;;;;12.65;10.38;;;;;;;13.98;100.00;100310.22;5074297;28;20235;-63
2021/10/28 15:42:27;;;;;;;12.35;10.43;;;;;;;13.94;100.00;100300.91;5074256;28;20272;-63
2021/10/28 15:53:51;;;;;;;10.50;9.40;;;;;;;13.31;100.00;100306.22;5072784;28;20277;-64
2021/10/28 16:21:54;;;;;;;16.43;12.97;;;;;;;11.85;100.00;100296.81;5053272;28;20647;-63
2021/10/28 16:24:24;;;;;;;17.63;13.23;;;;;;;11.80;100.00;100303.91;5053465;28;20300;-63
2021/10/28 16:26:54;;;;;;;15.63;12.97;;;;;;;11.81;100.00;100306.38;5053565;28;20606;-64
2021/10/28 16:29:23;;;;;;;17.33;14.03;;;;;;;11.71;100.00;100306.06;5053323;28;20237;-63
2021/10/28 16:31:52;;;;;;;16.30;13.17;;;;;;;11.75;100.00;100301.06;5053184;28;20212;-63
2021/10/28 16:34:25;;;;;;;15.93;13.30;;;;;;;11.68;100.00;100293.03;5053338;28;20177;-62
2021/10/28 16:36:56;;;;;;;15.87;12.63;;;;;;;11.67;100.00;100287.88;5053018;28;20240;-62
2021/10/28 16:39:25;;;;;;;15.20;12.10;;;;;;;11.59;100.00;100293.50;5053211;28;20185;-63
2021/10/28 16:41:55;;;;;;;15.70;13.43;;;;;;;11.70;100.00;100285.53;5052832;28;20684;-63
2021/10/28 16:44:24;;;;;;;16.97;12.13;;;;;;;11.65;100.00;100289.97;5052805;28;20296;-63
2021/10/28 16:46:54;;;;;;;16.03;12.53;;;;;;;11.62;100.00;100293.88;5052863;28;20776;-63
2021/10/28 16:49:23;;;;;;;14.67;11.67;;;;;;;11.55;100.00;100290.41;5053161;28;20225;-63
2021/10/28 16:51:51;;;;;;;15.90;11.73;;;;;;;11.59;100.00;100282.72;5053094;28;20209;-64
2021/10/28 16:54:21;;;;;;;16.07;11.57;;;;;;;11.52;100.00;100288.16;5052954;28;20305;-63
2021/10/28 16:56:49;;;;;;;13.73;11.10;;;;;;;11.44;100.00;100293.03;5052976;28;20236;-63
2021/10/28 16:59:18;;;;;;;13.90;11.00;;;;;;;11.42;100.00;100297.81;5061992;28;20200;-62
2021/10/28 17:01:46;;;;;;;13.00;10.80;;;;;;;11.39;100.00;100295.56;5072777;28;20258;-64
2021/10/28 17:04:15;;;;;;;11.13;9.73;;;;;;;11.49;100.00;100290.50;5072567;28;20224;-64
2021/10/28 17:06:43;;;;;;;15.33;9.13;;;;;;;11.45;100.00;100300.91;5072745;28;20208;-63
2021/10/28 17:09:12;;;;;;;10.30;8.47;;;;;;;11.40;100.00;100308.81;5072886;28;20246;-62
2021/10/28 17:11:42;;;;;;;11.93;8.87;;;;;;;11.32;100.00;100309.13;5072321;28;20232;-63
2021/10/28 17:14:11;;;;;;;10.23;8.80;;;;;;;11.35;100.00;100314.06;5068730;28;20183;-63
2021/10/28 17:16:44;;;;;;;11.60;9.10;;;;;;;11.28;100.00;100307.88;5063321;28;20598;-65
2021/10/28 17:19:12;;;;;;;10.70;8.67;;;;;;;11.24;100.00;100306.69;5059642;28;20219;-63
2021/10/28 17:21:41;;;;;;;11.20;8.77;;;;;;;11.27;100.00;100311.66;5064990;28;20284;-63
2021/10/28 17:24:21;;;;;;;11.20;8.87;;;;;;;11.19;100.00;100313.78;5063030;28;20316;-63
2021/10/28 17:26:51;;;;;;;12.83;9.20;;;;;;;11.14;100.00;100319.00;5061258;28;20276;-63
2021/10/28 17:29:19;;;;;;;12.60;9.80;;;;;;;11.03;100.00;100315.97;5058813;28;20284;-63
2021/10/28 17:31:50;;;;;;;10.87;9.27;;;;;;;10.93;100.00;100323.72;5052686;28;20309;-63
2021/10/28 17:34:19;;;;;;;11.37;9.97;;;;;;;10.88;100.00;100325.41;5069369;28;20276;-64
2021/10/28 17:36:52;;;;;;;11.33;9.77;;;;;;;10.86;100.00;100316.72;5070562;28;20224;-64
2021/10/28 17:39:22;;;;;;;10.57;8.60;;;;;;;10.89;100.00;100316.31;5068531;28;20239;-63
2021/10/28 17:41:52;;;;;;;10.10;9.00;;;;;;;10.82;100.00;100315.53;5072762;28;20215;-65
2021/10/28 17:44:23;;;;;;;10.77;8.20;;;;;;;10.80;100.00;100318.44;5070252;28;20205;-64
2021/10/28 17:46:51;;;;;;;9.33;7.90;;;;;;;10.75;100.00;100320.94;5066381;28;20193;-64
2021/10/28 17:49:20;;;;;;;9.30;8.30;;;;;;;10.73;100.00;100328.41;5053123;28;20688;-62
2021/10/28 17:51:48;;;;;;;9.87;7.47;;;;;;;10.73;100.00;100328.41;5056551;28;20280;-63
2021/10/28 17:54:17;;;;;;;9.77;7.50;;;;;;;10.73;100.00;100328.41;5052092;28;20292;-64
2021/10/28 17:56:45;;;;;;;9.43;6.87;;;;;;;10.79;100.00;100313.25;5052293;28;20292;-63
2021/10/28 17:59:18;;;;;;;7.13;6.43;;;;;;;10.83;100.00;100317.16;5060432;28;20675;-63
2021/10/28 18:01:46;;;;;;;8.13;6.33;;;;;;;10.89;100.00;100321.69;5072381;28;20220;-64
2021/10/28 18:04:15;;;;;;;7.90;6.27;;;;;;;10.89;100.00;100313.59;5071968;28;20636;-65
2021/10/28 18:06:44;;;;;;;9.10;7.00;;;;;;;10.92;100.00;100319.41;5070918;28;20288;-64
2021/10/28 18:09:12;;;;;;;8.27;6.87;;;;;;;10.86;100.00;100316.72;5052394;28;20296;-63
2021/10/28 18:11:40;;;;;;;9.87;7.07;;;;;;;10.80;100.00;100314.91;5051972;28;20649;-64
2021/10/28 18:14:13;;;;;;;9.77;8.57;;;;;;;10.76;100.00;100313.69;5051840;28;20292;-65
2021/10/28 18:16:43;;;;;;;11.40;8.90;;;;;;;10.82;100.00;100320.91;5051993;28;20216;-65
2021/10/28 18:19:11;;;;;;;8.50;7.60;;;;;;;10.82;100.00;100310.13;5051677;28;20205;-64
2021/10/28 18:21:42;;;;;;;10.30;7.70;;;;;;;11.06;100.00;100314.69;5051742;28;20725;-63
2021/10/28 18:24:11;;;;;;;8.90;7.30;;;;;;;10.98;100.00;100312.28;5051754;28;20558;-63
2021/10/28 18:26:40;;;;;;;9.40;7.07;;;;;;;11.11;100.00;100306.81;5051879;28;20205;-63
2021/10/28 18:29:09;;;;;;;8.43;7.07;;;;;;;11.07;100.00;100311.81;5051791;28;20292;-64
2021/10/28 18:31:37;;;;;;;7.67;6.87;;;;;;;11.28;100.00;100305.19;5052148;28;20284;-64
2021/10/28 18:34:08;;;;;;;11.10;7.87;;;;;;;11.19;100.00;100311.09;5052171;28;20221;-63
2021/10/28 18:36:37;;;;;;;8.83;7.93;;;;;;;11.34;100.00;100304.31;5054548;28;20202;-63
2021/10/28 18:39:11;;;;;;;9.00;7.50;;;;;;;11.28;100.00;100307.88;5055677;28;20201;-63
2021/10/28 18:41:40;;;;;;;9.77;6.77;;;;;;;11.11;100.00;100306.81;5055582;28;20194;-63
2021/10/28 18:44:09;;;;;;;7.77;6.70;;;;;;;11.18;100.00;100307.56;5055081;28;20653;-64
2021/10/28 18:46:38;;;;;;;7.33;6.40;;;;;;;11.47;100.00;100312.28;5055244;28;20256;-63
2021/10/28 18:49:08;;;;;;;8.43;6.93;;;;;;;11.40;100.00;100308.03;5055266;28;20208;-64
2021/10/28 18:51:40;;;;;;;7.23;6.53;;;;;;;11.19;100.00;100308.41;5054918;28;20186;-63
2021/10/28 18:54:10;;;;;;;7.53;6.50;;;;;;;11.08;100.00;100299.13;5055388;28;20182;-63
2021/10/28 18:56:38;;;;;;;7.90;6.73;;;;;;;11.28;100.00;100307.09;5055057;28;20736;-63
2021/10/28 18:59:07;;;;;;;9.63;7.60;;;;;;;11.33;100.00;100305.34;5062511;28;20256;-63
2021/10/28 19:01:36;;;;;;;8.17;7.17;;;;;;;11.37;100.00;100300.34;5075194;28;20292;-64